Time;durP1;ratioP1;P1;durP2;ratioP2;P2;SDS_P1;SDS_P2;PMS_P1;PMS_P2;Temp;Humidity;BMP_temperature;BMP_pressure;BME280_temperature;BME280_humidity;BME280_pressure;Samples;Min_cycle;Max_cycle;Signal;HPM_P1;HPM_P2
2021/12/11 00:02:08;;;;;;;24.92;4.57;;;;;;;4.97;85.56;100575.22;4964768;28;20808;-89
2021/12/11 00:04:42;;;;;;;23.13;4.18;;;;;;;4.97;85.33;100573.31;4979770;28;20061;-89
2021/12/11 00:07:17;;;;;;;16.73;3.58;;;;;;;4.97;85.41;100575.22;4963700;28;20039;-89
2021/12/11 00:09:54;;;;;;;18.83;4.60;;;;;;;4.96;85.49;100574.41;4978652;28;20054;-90
2021/12/11 00:12:27;;;;;;;28.27;4.32;;;;;;;4.96;85.17;100574.41;4969755;28;20038;-90
2021/12/11 00:15:10;;;;;;;23.33;3.95;;;;;;;4.98;85.29;100585.09;4978919;28;20047;-89
2021/12/11 00:17:37;;;;;;;18.15;5.38;;;;;;;4.99;85.32;100584.78;4951375;28;20054;-90
2021/12/11 00:20:08;;;;;;;14.95;3.75;;;;;;;4.99;85.24;100584.78;4968871;28;20042;-90
2021/12/11 00:22:35;;;;;;;18.60;4.00;;;;;;;5.01;85.78;100573.47;4951077;28;20435;-89
2021/12/11 00:25:09;;;;;;;24.67;3.67;;;;;;;5.01;85.58;100588.00;4965328;28;20169;-91
2021/12/11 00:27:41;;;;;;;22.15;4.75;;;;;;;5.02;85.70;100575.91;4967477;28;20117;-92
2021/12/11 00:30:11;;;;;;;21.08;6.18;;;;;;;5.04;85.69;100579.16;4988966;28;20066;-87
2021/12/11 00:32:39;;;;;;;21.75;3.63;;;;;;;5.05;85.50;100577.22;4972074;28;20089;-88
2021/12/11 00:35:12;;;;;;;30.85;5.95;;;;;;;5.06;85.43;100565.09;4974502;28;20132;-88
2021/12/11 00:37:41;;;;;;;19.40;4.30;;;;;;;5.08;85.56;100565.63;4971573;28;20137;-88
2021/12/11 00:40:10;;;;;;;15.60;3.83;;;;;;;5.07;85.18;100570.31;4963922;28;20046;-88
2021/12/11 00:42:38;;;;;;;13.35;3.83;;;;;;;5.08;85.27;100560.13;4955658;28;20034;-88
2021/12/11 00:45:14;;;;;;;24.63;4.60;;;;;;;5.08;85.54;100560.97;4973258;28;20051;-87
2021/12/11 00:47:46;;;;;;;15.55;3.55;;;;;;;5.09;85.44;100565.31;4985458;28;20386;-88
2021/12/11 00:50:15;;;;;;;25.48;5.32;;;;;;;5.10;85.27;100569.69;4982863;28;20046;-87
2021/12/11 00:52:50;;;;;;;10.88;4.60;;;;;;;5.11;85.48;100559.53;4972679;28;20381;-88
2021/12/11 00:55:24;;;;;;;23.35;4.75;;;;;;;5.10;85.43;100555.97;4970000;28;20039;-88
2021/12/11 00:58:17;;;;;;;13.60;3.63;;;;;;;5.10;85.63;100558.72;4972397;28;20092;-88
2021/12/11 01:00:57;;;;;;;17.70;3.78;;;;;;;5.12;85.26;100570.16;4936456;28;20102;-88
2021/12/11 01:03:28;;;;;;;20.40;4.22;;;;;;;5.11;85.60;100576.78;4951628;28;20049;-88
2021/12/11 01:05:58;;;;;;;15.13;3.67;;;;;;;5.13;85.37;100574.53;4964033;28;20047;-88
2021/12/11 01:08:32;;;;;;;17.30;4.07;;;;;;;5.15;85.67;100566.00;4938493;28;20049;-88
2021/12/11 01:11:10;;;;;;;13.40;3.55;;;;;;;5.13;85.44;100569.06;4932001;28;20057;-88
2021/12/11 01:13:43;;;;;;;13.82;2.75;;;;;;;5.14;85.33;100576.16;4948063;28;20053;-88
2021/12/11 01:16:13;;;;;;;16.27;5.05;;;;;;;5.13;85.51;100555.34;4937411;28;20043;-88
2021/12/11 01:18:44;;;;;;;20.95;5.00;;;;;;;5.14;85.43;100562.44;4936288;28;20050;-89
2021/12/11 01:21:30;;;;;;;17.55;4.10;;;;;;;5.15;85.30;100557.75;4951630;28;20129;-88
2021/12/11 01:26:43;;;;;;;16.17;3.95;;;;;;;5.14;85.50;100573.41;4950892;28;20042;-88
2021/12/11 01:29:10;;;;;;;20.13;4.32;;;;;;;5.15;85.43;100561.31;4949457;28;20051;-89
2021/12/11 01:31:38;;;;;;;16.00;4.03;;;;;;;5.16;85.47;100562.94;4962627;28;20034;-88
2021/12/11 01:34:05;;;;;;;12.65;4.18;;;;;;;5.18;85.29;100560.69;4947910;28;20406;-88
2021/12/11 01:36:34;;;;;;;22.73;5.40;;;;;;;5.19;85.24;100556.03;4951308;28;20101;-89
2021/12/11 01:39:06;;;;;;;20.83;4.05;;;;;;;5.18;85.42;100555.22;4966546;28;20077;-88
2021/12/11 01:41:33;;;;;;;15.88;4.45;;;;;;;5.19;85.40;100559.56;4948609;28;20047;-88
2021/12/11 01:44:06;;;;;;;21.30;4.30;;;;;;;5.19;85.53;100559.56;4964431;28;20038;-88
2021/12/11 01:46:34;;;;;;;15.23;4.88;;;;;;;5.20;85.24;100574.09;4946744;28;20070;-87
2021/12/11 01:49:06;;;;;;;17.30;4.25;;;;;;;5.21;85.30;100565.56;4948674;28;20063;-89
2021/12/11 01:51:40;;;;;;;14.27;3.45;;;;;;;5.22;85.20;100567.16;4953144;28;20046;-88
2021/12/11 01:54:18;;;;;;;17.08;3.45;;;;;;;5.24;85.15;100572.34;4950002;28;20043;-88
2021/12/11 01:56:58;;;;;;;19.75;3.50;;;;;;;5.26;85.26;100570.09;4962121;28;20039;-89
2021/12/11 01:59:34;;;;;;;17.92;6.72;;;;;;;5.23;85.38;100571.53;4952525;28;20062;-88
2021/12/11 02:02:09;;;;;;;14.23;3.92;;;;;;;5.25;85.16;100566.53;4936203;28;20043;-89
2021/12/11 02:04:41;;;;;;;23.10;4.75;;;;;;;5.26;85.25;100559.94;4931341;28;20078;-88
2021/12/11 02:07:15;;;;;;;12.70;3.70;;;;;;;5.27;85.35;100555.25;4936909;28;20043;-88
2021/12/11 02:09:50;;;;;;;22.30;4.15;;;;;;;5.27;85.28;100556.03;4949950;28;20049;-88
2021/12/11 02:12:20;;;;;;;12.98;3.17;;;;;;;5.26;85.20;100562.69;4949098;28;20065;-87
2021/12/11 02:14:52;;;;;;;15.52;3.25;;;;;;;5.27;85.39;100561.53;4953235;28;20117;-89
2021/12/11 02:17:25;;;;;;;15.35;3.92;;;;;;;5.29;85.25;100572.22;4961885;28;20126;-88
2021/12/11 02:19:55;;;;;;;12.13;3.50;;;;;;;5.29;85.21;100570.28;4963653;28;20047;-89
2021/12/11 02:22:37;;;;;;;19.80;3.17;;;;;;;5.30;85.42;100571.88;4948248;28;20128;-88
2021/12/11 02:25:12;;;;;;;15.05;2.92;;;;;;;5.32;85.19;100577.88;4966558;28;20041;-88
2021/12/11 02:27:54;;;;;;;13.93;4.40;;;;;;;5.32;85.27;100572.38;4950115;28;20040;-88
2021/12/11 02:30:24;;;;;;;17.05;3.08;;;;;;;5.32;85.54;100577.88;4945082;28;20050;-88
2021/12/11 02:33:27;;;;;;;18.75;3.90;;;;;;;5.33;85.37;100578.69;4950434;28;20061;-89
2021/12/11 02:35:57;;;;;;;11.02;3.15;;;;;;;5.33;85.40;100563.03;4945462;28;20427;-88
2021/12/11 02:38:35;;;;;;;13.15;2.58;;;;;;;5.34;85.51;100572.91;4963012;28;20070;-87
2021/12/11 02:41:19;;;;;;;12.90;4.35;;;;;;;5.34;85.40;100578.38;4965063;28;20039;-88
2021/12/11 02:43:51;;;;;;;17.88;4.38;;;;;;;5.35;85.50;100584.66;4951199;28;20038;-89
2021/12/11 02:46:39;;;;;;;12.63;3.00;;;;;;;5.35;85.36;100579.19;4952045;28;20122;-88
2021/12/11 02:49:16;;;;;;;20.05;2.70;;;;;;;5.35;85.63;100570.94;4967530;28;20097;-89
2021/12/11 02:51:57;;;;;;;17.88;3.42;;;;;;;5.34;85.73;100567.41;4929666;28;20075;-88
2021/12/11 02:54:33;;;;;;;13.23;3.13;;;;;;;5.35;85.47;100569.00;4950706;28;20061;-88
2021/12/11 02:57:05;;;;;;;16.17;3.42;;;;;;;5.36;85.72;100556.91;4947634;28;20308;-88
2021/12/11 02:59:39;;;;;;;;;;;;;;;5.35;85.75;100544.31;4951465;28;20226;-89
2021/12/11 03:02:29;;;;;;;19.40;3.75;;;;;;;5.36;85.59;100545.94;4950806;28;19924;-88
2021/12/11 03:05:07;;;;;;;19.77;3.67;;;;;;;5.37;85.62;100544.81;4965750;28;20046;-88
2021/12/11 03:07:39;;;;;;;14.02;2.83;;;;;;;5.38;85.97;100542.88;4948045;28;20038;-88
2021/12/11 03:10:10;;;;;;;18.92;4.72;;;;;;;5.38;85.91;100542.88;4949989;28;20053;-88
2021/12/11 03:12:38;;;;;;;25.23;3.90;;;;;;;5.40;86.03;100540.63;4931830;28;20550;-88
2021/12/11 03:15:08;;;;;;;19.17;3.83;;;;;;;5.40;86.23;100530.44;4949680;28;20043;-88
2021/12/11 03:17:35;;;;;;;16.75;4.20;;;;;;;5.40;85.79;100535.94;4931163;28;20046;-88
2021/12/11 03:20:04;;;;;;;11.50;3.03;;;;;;;5.42;86.15;100522.72;4950105;28;20051;-87
2021/12/11 03:22:34;;;;;;;14.48;4.22;;;;;;;5.43;86.35;100524.31;4949469;28;20243;-88
2021/12/11 03:25:05;;;;;;;12.35;3.10;;;;;;;5.44;86.78;100525.13;4947440;28;20069;-88
2021/12/11 03:27:32;;;;;;;24.50;4.35;;;;;;;5.44;86.45;100525.13;4948493;28;20517;-87
2021/12/11 03:30:00;;;;;;;16.83;3.33;;;;;;;5.43;86.76;100524.31;4949423;28;20126;-89
2021/12/11 03:32:27;;;;;;;21.92;6.07;;;;;;;5.42;86.67;100522.72;4961035;28;20035;-89
2021/12/11 03:34:54;;;;;;;17.13;3.72;;;;;;;5.44;86.85;100517.72;4948634;28;20039;-88
2021/12/11 03:37:21;;;;;;;18.17;3.33;;;;;;;5.45;87.07;100516.56;4950740;28;20471;-88
2021/12/11 03:39:52;;;;;;;19.08;3.97;;;;;;;5.46;87.00;100504.47;4965290;28;20961;-89
2021/12/11 03:42:23;;;;;;;18.23;3.05;;;;;;;5.46;87.09;100496.25;4951936;28;20034;-88
2021/12/11 03:44:51;;;;;;;12.50;2.97;;;;;;;5.47;87.06;100500.63;4932939;28;20055;-89
2021/12/11 03:47:29;;;;;;;22.38;4.30;;;;;;;5.47;87.20;100508.84;4950038;28;20037;-89
2021/12/11 03:49:56;;;;;;;21.35;3.78;;;;;;;5.49;87.21;100506.59;4951321;28;20050;-89
2021/12/11 03:52:25;;;;;;;15.25;3.50;;;;;;;5.49;87.29;100495.59;4949372;28;20052;-88
2021/12/11 03:54:54;;;;;;;19.73;2.95;;;;;;;5.50;87.07;100502.72;4948098;28;20061;-89
2021/12/11 03:57:25;;;;;;;15.55;3.33;;;;;;;5.50;87.20;100497.25;4934571;28;20121;-89
2021/12/11 03:59:53;;;;;;;23.25;4.05;;;;;;;5.51;87.43;100493.34;4966360;28;20114;-89
2021/12/11 04:02:25;;;;;;;13.80;4.22;;;;;;;5.52;87.50;100494.97;4951833;28;20031;-88
2021/12/11 04:05:00;;;;;;;15.25;4.00;;;;;;;5.53;87.36;100482.84;4968296;28;20039;-88
2021/12/11 04:07:32;;;;;;;20.20;3.00;;;;;;;5.54;87.34;100480.91;4951922;28;20047;-89
2021/12/11 04:09:59;;;;;;;14.48;3.30;;;;;;;5.55;87.35;100479.81;4951008;28;20401;-88
2021/12/11 04:12:27;;;;;;;18.17;2.95;;;;;;;5.56;87.54;100477.88;4969220;28;20041;-88
2021/12/11 04:14:55;;;;;;;22.17;3.63;;;;;;;5.58;87.48;100481.09;4950323;28;20035;-89
2021/12/11 04:17:26;;;;;;;13.70;3.72;;;;;;;5.57;87.78;100483.03;4930209;28;20055;-88
2021/12/11 04:19:58;;;;;;;17.05;3.97;;;;;;;5.59;87.41;100488.22;4933262;28;20188;-87
2021/12/11 04:22:27;;;;;;;13.60;2.80;;;;;;;5.59;87.86;100471.75;4926387;28;20051;-88
2021/12/11 04:24:54;;;;;;;11.77;2.65;;;;;;;5.61;87.66;100470.31;4967288;28;20431;-87
2021/12/11 04:27:24;;;;;;;15.73;3.58;;;;;;;5.62;87.81;100460.09;4956523;28;20048;-88
2021/12/11 04:29:51;;;;;;;17.98;3.92;;;;;;;5.62;87.61;100460.91;4967265;28;20049;-88
2021/12/11 04:32:21;;;;;;;24.55;6.25;;;;;;;5.63;87.65;100454.31;4928707;28;20047;-88
2021/12/11 04:34:49;;;;;;;17.05;3.75;;;;;;;5.66;87.60;100452.84;4954264;28;20062;-88
2021/12/11 04:37:22;;;;;;;15.98;4.10;;;;;;;5.65;87.56;100448.47;4947253;28;20480;-88
2021/12/11 04:39:57;;;;;;;19.67;4.40;;;;;;;5.65;87.48;100438.31;4967156;28;20035;-88
2021/12/11 04:42:49;;;;;;;19.13;3.40;;;;;;;5.68;87.53;100447.84;4951961;28;20047;-88
2021/12/11 04:45:33;;;;;;;15.55;3.28;;;;;;;5.70;87.58;100462.06;4950275;28;20043;-87
2021/12/11 04:48:11;;;;;;;10.57;2.92;;;;;;;5.71;87.59;100449.97;4951007;28;20051;-87
2021/12/11 04:51:10;;;;;;;12.23;3.15;;;;;;;5.73;87.64;100450.44;4963526;28;20050;-87
2021/12/11 05:01:35;;;;;;;16.65;3.03;;;;;;;5.78;87.35;100433.81;4966071;28;20061;-89
2021/12/11 05:04:45;;;;;;;16.50;3.13;;;;;;;5.80;87.68;100428.81;4965965;28;20093;-88
2021/12/11 05:07:55;;;;;;;18.23;3.05;;;;;;;5.80;87.64;100417.84;4949495;28;20069;-88
2021/12/11 05:10:16;;;;;;;16.92;3.47;;;;;;;5.79;87.32;100410.72;4951432;28;20065;-87
2021/12/11 05:12:47;;;;;;;12.57;2.60;;;;;;;5.80;87.40;100417.84;4959109;28;20055;-88
2021/12/11 05:15:27;;;;;;;15.13;3.05;;;;;;;5.81;87.70;100413.94;4951211;28;20043;-88
2021/12/11 05:17:55;;;;;;;12.43;3.45;;;;;;;5.82;87.54;100426.56;4963739;28;20043;-87
2021/12/11 05:20:32;;;;;;;12.18;2.90;;;;;;;5.83;87.52;100426.22;4945735;28;20089;-88
2021/12/11 05:22:59;;;;;;;8.65;2.60;;;;;;;5.84;87.39;100432.53;4946285;28;20038;-88
2021/12/11 05:25:26;;;;;;;8.63;2.20;;;;;;;5.85;87.70;100434.19;4949163;28;20038;-88
2021/12/11 05:27:53;;;;;;;10.10;1.77;;;;;;;5.86;87.73;100433.03;4934970;28;20144;-87
2021/12/11 05:30:33;;;;;;;13.43;3.47;;;;;;;5.88;87.43;100441.75;4949738;28;20050;-89
2021/12/11 05:33:00;;;;;;;12.20;3.60;;;;;;;5.89;87.30;100441.47;4965236;28;20039;-86
2021/12/11 05:35:34;;;;;;;14.27;2.80;;;;;;;5.89;87.76;100438.72;4951496;28;20491;-88
2021/12/11 05:38:02;;;;;;;11.23;2.53;;;;;;;5.90;87.43;100432.09;4952483;28;20042;-89
2021/12/11 05:40:34;;;;;;;12.68;2.92;;;;;;;5.91;87.30;100416.41;4931729;28;20050;-87
2021/12/11 05:43:01;;;;;;;12.93;3.78;;;;;;;5.92;87.14;100420.78;4964996;28;20974;-88
2021/12/11 05:45:28;;;;;;;16.20;3.08;;;;;;;5.93;87.09;100414.16;4952059;28;20039;-88
2021/12/11 05:47:57;;;;;;;15.10;3.17;;;;;;;5.94;87.34;100415.75;4933963;28;20048;-88
2021/12/11 05:50:32;;;;;;;11.95;2.85;;;;;;;5.94;87.42;100415.75;4931932;28;20100;-88
2021/12/11 05:52:59;;;;;;;13.32;2.17;;;;;;;5.95;87.10;100417.38;4951732;28;20055;-88
2021/12/11 05:55:28;;;;;;;17.58;2.55;;;;;;;5.95;87.22;100403.66;4953090;28;20066;-88
2021/12/11 05:57:58;;;;;;;9.38;2.22;;;;;;;5.95;87.32;100409.16;4963404;28;20038;-88
2021/12/11 06:00:34;;;;;;;11.00;2.80;;;;;;;5.96;87.37;100399.75;4965693;28;20050;-88
2021/12/11 06:03:04;;;;;;;12.90;3.40;;;;;;;5.96;87.37;100399.75;4947778;28;20071;-88
2021/12/11 06:05:33;;;;;;;16.17;3.03;;;;;;;5.97;87.15;100390.38;4972575;28;20441;-88
2021/12/11 06:08:00;;;;;;;10.32;2.33;;;;;;;5.98;87.32;100389.28;4987527;28;20370;-88
2021/12/11 06:10:27;;;;;;;17.95;1.92;;;;;;;6.00;87.04;100384.25;4967965;28;20121;-87
2021/12/11 06:12:57;;;;;;;12.43;2.35;;;;;;;6.01;87.25;100383.13;4968563;28;20450;-87
2021/12/11 06:15:24;;;;;;;13.75;2.40;;;;;;;6.01;86.94;100369.41;4961398;28;20051;-88
2021/12/11 06:17:51;;;;;;;8.93;2.35;;;;;;;6.02;86.89;100377.31;4952223;28;20051;-87
2021/12/11 06:20:23;;;;;;;10.13;2.58;;;;;;;6.04;86.80;100368.72;4982958;28;20031;-87
2021/12/11 06:22:50;;;;;;;18.27;4.18;;;;;;;6.03;87.08;100367.94;4969059;28;20036;-88
2021/12/11 06:25:22;;;;;;;7.82;1.95;;;;;;;6.03;86.70;100367.94;4972034;28;20055;-88
2021/12/11 06:27:49;;;;;;;16.33;3.15;;;;;;;6.05;86.93;100370.34;4966701;28;20034;-88
2021/12/11 06:30:18;;;;;;;19.98;5.38;;;;;;;6.05;87.09;100364.84;4978602;28;20054;-89
2021/12/11 06:32:47;;;;;;;6.25;2.47;;;;;;;6.04;87.00;100368.72;4968853;28;20034;-87
2021/12/11 06:35:26;;;;;;;10.13;2.83;;;;;;;6.04;87.14;100380.53;4954101;28;20069;-88
2021/12/11 06:37:53;;;;;;;16.58;2.90;;;;;;;6.05;87.09;100375.84;4969310;28;20043;-88
2021/12/11 06:40:21;;;;;;;16.40;3.67;;;;;;;6.06;87.13;100374.72;4965305;28;20046;-88
2021/12/11 06:42:51;;;;;;;13.35;2.40;;;;;;;6.07;87.26;100379.06;4969773;28;20166;-88
2021/12/11 06:45:20;;;;;;;14.73;1.98;;;;;;;6.06;87.33;100377.47;4970681;28;20050;-89
2021/12/11 06:47:47;;;;;;;9.27;2.15;;;;;;;6.07;87.48;100390.06;4965806;28;20054;-88
2021/12/11 06:50:15;;;;;;;13.23;2.67;;;;;;;6.06;87.42;100389.25;4967677;28;20053;-88
2021/12/11 06:52:43;;;;;;;12.05;2.70;;;;;;;6.08;87.66;100391.69;4983018;28;20470;-87
2021/12/11 06:55:13;;;;;;;10.27;2.38;;;;;;;6.08;87.69;100391.69;4950219;28;20538;-88
2021/12/11 06:57:40;;;;;;;9.77;3.10;;;;;;;6.08;87.92;100392.50;4968448;28;20050;-89
2021/12/11 07:00:08;;;;;;;11.85;2.90;;;;;;;6.05;88.03;100384.91;4962246;28;20055;-89
2021/12/11 07:02:35;;;;;;;12.00;3.10;;;;;;;6.05;88.05;100382.16;4982853;28;20466;-88
2021/12/11 07:05:03;;;;;;;14.48;3.30;;;;;;;6.04;88.35;100391.50;4970698;28;20050;-87
2021/12/11 07:07:35;;;;;;;19.73;3.47;;;;;;;6.03;88.75;100378.13;4980257;28;20499;-89
2021/12/11 07:10:05;;;;;;;18.27;3.15;;;;;;;6.02;88.75;100381.97;4981770;28;20234;-90
2021/12/11 07:12:33;;;;;;;13.10;3.10;;;;;;;6.01;88.69;100383.13;4969969;28;20057;-89
2021/12/11 07:15:00;;;;;;;12.85;3.58;;;;;;;6.00;89.05;100376.00;4982855;28;20093;-89
2021/12/11 07:17:27;;;;;;;19.88;4.97;;;;;;;5.99;89.32;100374.38;4978291;28;20039;-89
2021/12/11 07:19:54;;;;;;;21.98;4.65;;;;;;;5.99;89.39;100371.63;4952455;28;20074;-90
2021/12/11 07:22:22;;;;;;;19.23;4.53;;;;;;;5.99;89.68;100372.44;4967044;28;20483;-91
2021/12/11 07:25:03;;;;;;;12.43;3.22;;;;;;;5.98;89.80;100370.03;4965456;28;20049;-90
2021/12/11 07:27:30;;;;;;;15.40;4.53;;;;;;;5.99;90.14;100366.94;4970078;28;20045;-90
2021/12/11 07:29:57;;;;;;;13.68;3.75;;;;;;;6.01;90.10;100361.16;4955320;28;20046;-90
2021/12/11 07:32:25;;;;;;;13.23;3.40;;;;;;;6.01;90.28;100358.41;4986027;28;20515;-90
2021/12/11 07:34:52;;;;;;;15.32;4.13;;;;;;;6.01;90.50;100355.66;4976295;28;20093;-90
2021/12/11 07:37:19;;;;;;;15.18;3.47;;;;;;;6.01;90.83;100342.69;4975128;28;20129;-89
2021/12/11 07:39:46;;;;;;;19.48;5.40;;;;;;;6.01;90.88;100337.19;4975236;28;20046;-90
2021/12/11 07:42:13;;;;;;;20.42;3.72;;;;;;;6.03;90.97;100340.47;4973398;28;20046;-90
2021/12/11 07:44:40;;;;;;;14.32;2.92;;;;;;;6.04;91.20;100346.72;4973888;28;20058;-91
2021/12/11 07:47:08;;;;;;;12.43;4.15;;;;;;;6.04;91.44;100331.06;4971197;28;20050;-90
2021/12/11 07:49:36;;;;;;;15.30;3.90;;;;;;;6.04;91.74;100333.00;4989930;28;20066;-90
2021/12/11 07:52:04;;;;;;;23.50;5.22;;;;;;;6.06;91.79;100326.03;4971558;28;20416;-90
2021/12/11 07:54:31;;;;;;;20.42;5.18;;;;;;;6.08;91.75;100317.50;4986400;28;20039;-90
2021/12/11 07:56:58;;;;;;;18.60;4.60;;;;;;;6.09;92.06;100317.16;4956034;28;20436;-90
2021/12/11 07:59:26;;;;;;;20.65;5.50;;;;;;;6.09;92.15;100327.31;4979922;28;20074;-90
2021/12/11 08:01:54;;;;;;;22.50;5.57;;;;;;;6.10;91.93;100331.69;4983352;28;20046;-90
2021/12/11 08:04:22;;;;;;;16.85;4.75;;;;;;;6.11;92.19;100331.41;4965656;28;20043;-89
2021/12/11 08:06:51;;;;;;;12.30;4.15;;;;;;;6.13;92.70;100333.81;4963025;28;20039;-90
2021/12/11 08:09:20;;;;;;;14.55;4.45;;;;;;;6.13;92.65;100331.88;4976025;28;20046;-90
2021/12/11 08:11:50;;;;;;;11.35;3.90;;;;;;;6.15;92.59;100328.78;4950584;28;20043;-90
2021/12/11 08:14:19;;;;;;;21.45;5.55;;;;;;;6.16;92.75;100327.66;4971167;28;20047;-89
2021/12/11 08:16:47;;;;;;;20.08;6.10;;;;;;;6.18;93.00;100341.88;4962666;28;20130;-90
2021/12/11 08:19:19;;;;;;;17.45;4.25;;;;;;;6.19;93.25;100332.50;4969669;28;20046;-90
2021/12/11 08:21:49;;;;;;;17.15;7.32;;;;;;;6.22;93.48;100337.38;4949235;28;20049;-91
2021/12/11 08:24:16;;;;;;;11.27;4.20;;;;;;;6.24;93.55;100331.53;4964152;28;20109;-90
2021/12/11 08:26:45;;;;;;;15.95;4.68;;;;;;;6.26;93.52;100335.56;4982419;28;20047;-90
2021/12/11 08:29:14;;;;;;;12.80;3.50;;;;;;;6.28;93.43;100327.78;4967690;28;20039;-90
2021/12/11 08:31:47;;;;;;;10.25;3.20;;;;;;;6.30;93.77;100327.47;4955963;28;20397;-89
2021/12/11 08:34:14;;;;;;;20.83;5.47;;;;;;;6.34;94.00;100323.75;4967484;28;20113;-89
2021/12/11 08:36:41;;;;;;;14.98;4.90;;;;;;;6.37;94.14;100323.09;4964362;28;20089;-90
2021/12/11 08:39:10;;;;;;;25.98;7.80;;;;;;;6.38;94.11;100324.69;4971435;28;20034;-90
2021/12/11 08:41:39;;;;;;;20.15;6.85;;;;;;;6.43;94.36;100321.78;4952587;28;20134;-90
2021/12/11 08:44:12;;;;;;;25.90;7.28;;;;;;;6.45;94.37;100324.19;4967051;28;20043;-91
2021/12/11 08:46:44;;;;;;;19.48;4.65;;;;;;;6.47;94.49;100324.66;4934252;28;20131;-91
2021/12/11 08:49:19;;;;;;;10.98;3.97;;;;;;;6.49;94.72;100319.63;4951350;28;20042;-91
2021/12/11 08:51:51;;;;;;;18.42;6.20;;;;;;;6.52;94.62;100316.25;4966181;28;20141;-91
2021/12/11 08:54:21;;;;;;;10.88;3.20;;;;;;;6.53;94.90;100304.94;4965578;28;20031;-90
2021/12/11 08:56:49;;;;;;;12.65;4.32;;;;;;;6.56;95.05;100307.03;4945088;28;20066;-89
2021/12/11 08:59:18;;;;;;;16.00;5.43;;;;;;;6.58;95.26;100312.19;4956259;28;20057;-89
2021/12/11 09:02:08;;;;;;;14.13;5.80;;;;;;;6.60;95.20;100302.47;4946290;28;20066;-91
2021/12/11 09:05:07;;;;;;;17.30;6.38;;;;;;;6.63;95.47;100304.56;4949229;28;20066;-91
2021/12/11 09:07:39;;;;;;;24.55;7.80;;;;;;;6.65;95.97;100307.78;4929137;29;20566;-90
2021/12/11 09:10:39;;;;;;;14.25;4.45;;;;;;;6.68;95.85;100301.63;4932410;28;20050;-91
2021/12/11 09:13:15;;;;;;;11.23;4.03;;;;;;;6.71;95.84;100305.66;4950333;28;20508;-90
2021/12/11 09:15:42;;;;;;;11.60;3.85;;;;;;;6.75;95.90;100306.63;4947368;28;20070;-88
2021/12/11 09:18:25;;;;;;;11.50;3.90;;;;;;;6.79;96.25;100312.25;4931582;28;20134;-87
2021/12/11 09:21:08;;;;;;;13.20;3.63;;;;;;;6.80;96.28;100311.13;4947464;28;20047;-86
2021/12/11 09:23:51;;;;;;;17.95;6.47;;;;;;;6.84;96.21;100306.56;4949829;28;20046;-87
2021/12/11 09:26:26;;;;;;;31.40;9.45;;;;;;;6.88;96.45;100310.28;4949356;28;20093;-86
2021/12/11 09:29:25;;;;;;;22.80;8.20;;;;;;;6.90;96.67;100302.50;4952949;28;20480;-86
2021/12/11 09:32:01;;;;;;;15.60;5.60;;;;;;;6.93;96.64;100304.59;4944823;28;20097;-87
2021/12/11 09:34:34;;;;;;;12.02;5.30;;;;;;;6.94;96.75;100296.00;4934995;28;20983;-87
2021/12/11 09:37:02;;;;;;;15.38;5.30;;;;;;;6.95;96.87;100294.06;4951757;28;20050;-87
2021/12/11 09:39:51;;;;;;;8.23;3.72;;;;;;;6.97;97.02;100302.78;4936375;28;20085;-89
2021/12/11 09:42:18;;;;;;;11.18;4.75;;;;;;;6.97;97.02;100306.34;4929336;28;20051;-88
2021/12/11 09:45:14;;;;;;;16.00;5.85;;;;;;;6.99;97.05;100300.53;4953045;28;20055;-88
2021/12/11 09:47:50;;;;;;;30.67;9.80;;;;;;;6.99;97.21;100295.81;4930642;28;20143;-88
2021/12/11 09:50:43;;;;;;;21.48;8.68;;;;;;;7.03;97.35;100299.53;4948421;28;20504;-89
2021/12/11 09:53:15;;;;;;;31.27;7.72;;;;;;;7.06;97.53;100295.28;4946191;28;20031;-88
2021/12/11 09:55:43;;;;;;;16.38;6.43;;;;;;;7.08;97.51;100298.50;4951962;28;20114;-88
2021/12/11 09:58:14;;;;;;;21.00;7.07;;;;;;;7.11;97.41;100297.84;4948307;28;20467;-89
2021/12/11 10:00:57;;;;;;;14.40;5.57;;;;;;;7.13;97.65;100306.56;4985241;28;20073;-87
2021/12/11 10:03:32;;;;;;;14.00;6.18;;;;;;;7.16;97.58;100312.22;4975679;28;20053;-88
2021/12/11 10:06:14;;;;;;;23.23;6.93;;;;;;;7.18;97.54;100296.19;4978862;28;21747;-89
2021/12/11 10:08:45;;;;;;;12.68;6.18;;;;;;;7.22;97.78;100282.56;4969211;28;20389;-88
2021/12/11 10:11:21;;;;;;;17.42;6.80;;;;;;;7.26;97.88;100289.81;4969617;28;20051;-89
2021/12/11 10:14:04;;;;;;;14.05;6.30;;;;;;;7.32;98.09;100285.72;4969818;28;20433;-91
2021/12/11 10:16:37;;;;;;;15.30;6.22;;;;;;;7.39;98.04;100290.69;4952427;28;20106;-91
2021/12/11 10:19:06;;;;;;;14.13;6.32;;;;;;;7.44;98.40;100290.50;4954894;28;20235;-90
2021/12/11 10:21:59;;;;;;;13.25;4.97;;;;;;;7.49;98.53;100295.81;4948228;28;20078;-89
2021/12/11 10:24:37;;;;;;;11.00;5.82;;;;;;;7.55;98.64;100290.91;4966644;28;20057;-90
2021/12/11 10:27:23;;;;;;;13.07;4.18;;;;;;;7.61;98.65;100286.81;4967276;28;20048;-90
2021/12/11 10:30:06;;;;;;;;;;;;;;;;;;;;;
2021/12/11 10:32:46;;;;;;;15.43;4.80;;;;;;;7.73;98.89;100271.13;4985894;28;20085;-88
2021/12/11 10:35:31;;;;;;;8.18;3.88;;;;;;;7.80;99.00;100281.63;4967348;28;20133;-89
2021/12/11 10:38:00;;;;;;;12.68;3.60;;;;;;;7.82;99.03;100280.13;4951663;28;20158;-90
2021/12/11 10:40:52;;;;;;;14.30;4.15;;;;;;;7.85;99.12;100275.91;4967396;28;20121;-90
2021/12/11 10:43:45;;;;;;;12.80;3.40;;;;;;;7.89;99.26;100269.38;4968927;28;20408;-89
2021/12/11 10:46:17;;;;;;;8.23;3.92;;;;;;;7.96;99.52;100269.63;4949141;28;20038;-87
2021/12/11 10:48:51;;;;;;;9.70;2.60;;;;;;;8.05;99.84;100261.25;4967900;28;20398;-87
2021/12/11 10:51:23;;;;;;;6.05;2.22;;;;;;;8.17;99.96;100252.22;4981677;28;20133;-87
2021/12/11 10:54:04;;;;;;;5.65;3.55;;;;;;;8.29;99.76;100260.53;4967831;28;20061;-85
2021/12/11 10:56:32;;;;;;;5.47;1.80;;;;;;;8.37;99.92;100257.69;4961223;28;20042;-88
2021/12/11 10:59:07;;;;;;;3.42;1.55;;;;;;;8.50;100.00;100251.06;4965534;28;20494;-87
2021/12/11 11:02:20;;;;;;;2.58;1.10;;;;;;;8.68;100.00;100228.78;4950076;28;20406;-85
2021/12/11 11:05:29;;;;;;;2.65;1.13;;;;;;;8.83;100.00;100228.88;4948828;28;20043;-85
2021/12/11 11:08:01;;;;;;;2.05;0.60;;;;;;;8.94;100.00;100241.06;4963082;28;20045;-90
2021/12/11 11:10:39;;;;;;;0.65;0.65;;;;;;;9.03;100.00;100238.97;4956223;28;20097;-86
2021/12/11 11:13:29;;;;;;;1.52;0.80;;;;;;;9.13;100.00;100230.19;4966482;28;20126;-87
2021/12/11 11:16:09;;;;;;;2.17;0.70;;;;;;;9.18;100.00;100226.41;4971953;28;20042;-88
2021/12/11 11:18:39;;;;;;;0.85;0.77;;;;;;;9.23;100.00;100228.94;4967024;28;20046;-88
2021/12/11 11:21:24;;;;;;;1.55;0.50;;;;;;;9.33;100.00;100233.16;4980330;28;20039;-86
2021/12/11 11:23:52;;;;;;;3.03;0.60;;;;;;;9.36;100.00;100227.75;4977932;28;20049;-85
2021/12/11 11:26:27;;;;;;;0.68;0.47;;;;;;;9.43;100.00;100227.16;4961856;28;20491;-85
2021/12/11 11:28:56;;;;;;;2.42;0.88;;;;;;;9.47;100.00;100231.66;4950045;28;20054;-87
2021/12/11 11:31:33;;;;;;;1.65;0.90;;;;;;;9.57;100.00;100222.03;4984816;28;20035;-88
2021/12/11 11:34:05;;;;;;;3.80;1.08;;;;;;;9.64;100.00;100225.00;4964924;28;20105;-87
2021/12/11 11:36:35;;;;;;;4.13;1.95;;;;;;;9.70;100.00;100221.66;4978156;28;20117;-89
2021/12/11 11:39:08;;;;;;;3.83;1.73;;;;;;;9.76;100.00;100217.47;4978617;28;20413;-85
2021/12/11 11:41:49;;;;;;;6.15;3.22;;;;;;;9.83;100.00;100227.91;4947844;28;20486;-87
2021/12/11 11:44:19;;;;;;;18.10;8.63;;;;;;;9.86;99.96;100216.16;4945904;28;20038;-91
2021/12/11 11:46:50;;;;;;;11.65;5.70;;;;;;;9.94;100.00;100214.38;4963612;28;20054;-88
2021/12/11 11:49:30;;;;;;;11.13;5.55;;;;;;;10.00;100.00;100224.84;4980653;28;20054;-95
2021/12/11 11:52:08;;;;;;;6.45;3.30;;;;;;;10.02;100.00;100217.00;4969074;28;20038;-93
2021/12/11 11:54:38;;;;;;;10.60;6.30;;;;;;;10.04;100.00;100209.16;4954220;28;20050;-83
2021/12/11 11:57:13;;;;;;;4.13;1.90;;;;;;;10.05;99.80;100202.47;4967731;28;20050;-90
2021/12/11 11:59:41;;;;;;;8.75;4.22;;;;;;;10.05;99.81;100205.22;4952548;28;20120;-94
2021/12/11 12:02:19;;;;;;;1.67;1.20;;;;;;;10.08;99.99;100209.25;4952268;28;20070;-86
2021/12/11 12:04:48;;;;;;;1.25;0.75;;;;;;;10.08;99.64;100192.66;4949380;28;20043;-84
2021/12/11 12:07:17;;;;;;;1.80;0.82;;;;;;;10.09;99.60;100203.34;4970248;28;20043;-86